createdAt,value
2022-09-09T00:02:20.630Z,50.19
2022-09-09T00:05:28.463Z,49.86
2022-09-09T00:08:35.617Z,49.82
2022-09-09T00:11:49.081Z,49.89
2022-09-09T00:14:56.028Z,50.16
2022-09-09T00:17:57.522Z,50.07
2022-09-09T00:21:09.101Z,50.08
2022-09-09T00:23:56.062Z,50.10
2022-09-09T00:26:50.133Z,50.20
2022-09-09T00:29:39.568Z,50.23
2022-09-09T00:32:29.603Z,50.07
2022-09-09T00:35:32.845Z,50.39
2022-09-09T00:38:26.856Z,50.67
2022-09-09T00:41:36.390Z,50.39
2022-09-09T00:44:25.153Z,50.62
2022-09-09T00:47:36.492Z,50.69
2022-09-09T00:50:30.743Z,50.58
2022-09-09T00:53:52.942Z,50.72
2022-09-09T00:56:54.530Z,50.92
2022-09-09T00:59:52.731Z,50.36
2022-09-09T01:02:51.154Z,50.94
2022-09-09T01:05:43.418Z,50.77
2022-09-09T01:08:39.908Z,51.22
2022-09-09T01:12:04.198Z,50.98
2022-09-09T01:14:55.454Z,51.08
2022-09-09T01:17:49.826Z,51.26
2022-09-09T01:20:48.723Z,52.57
2022-09-09T01:23:47.398Z,51.67
2022-09-09T01:26:45.805Z,51.51
2022-09-09T01:29:42.003Z,51.47
2022-09-09T01:32:49.829Z,51.83
2022-09-09T01:35:41.552Z,51.62
2022-09-09T01:38:28.142Z,51.76
2022-09-09T01:41:13.928Z,51.71
2022-09-09T01:44:23.037Z,51.71
2022-09-09T01:47:09.612Z,51.88
2022-09-09T01:50:10.005Z,51.89
2022-09-09T01:53:00.828Z,52.02
2022-09-09T01:56:08.933Z,52.10
2022-09-09T01:59:06.696Z,52.12
2022-09-09T02:01:58.901Z,52.12
2022-09-09T02:04:49.219Z,52.20
2022-09-09T02:07:43.366Z,52.14
2022-09-09T02:11:02.855Z,52.37
2022-09-09T02:14:19.263Z,52.38
2022-09-09T02:17:11.190Z,52.54
2022-09-09T02:20:15.984Z,52.42
2022-09-09T02:23:29.204Z,52.44
2022-09-09T02:26:21.260Z,52.48
2022-09-09T02:29:15.515Z,52.59
2022-09-09T02:32:05.209Z,52.45
2022-09-09T02:35:01.910Z,52.68
2022-09-09T02:37:47.889Z,52.65
2022-09-09T02:40:35.002Z,52.44
2022-09-09T02:43:25.052Z,52.83
2022-09-09T02:46:40.500Z,52.76
2022-09-09T02:49:58.860Z,53.02
2022-09-09T02:53:26.842Z,52.83
2022-09-09T02:56:22.640Z,52.93
2022-09-09T02:59:09.297Z,52.95
2022-09-09T03:01:56.157Z,52.69
2022-09-09T03:04:45.624Z,52.84
2022-09-09T03:07:33.210Z,53.00
2022-09-09T03:10:20.265Z,53.03
2022-09-09T03:13:06.924Z,53.07
2022-09-09T03:15:57.500Z,53.00
2022-09-09T03:18:46.048Z,53.14
2022-09-09T03:21:31.881Z,52.99
2022-09-09T03:24:18.633Z,53.56
2022-09-09T03:27:04.802Z,53.04
2022-09-09T03:29:53.744Z,52.87
2022-09-09T03:32:47.087Z,53.03
2022-09-09T03:35:34.688Z,53.15
2022-09-09T03:38:22.244Z,53.19
2022-09-09T03:41:08.912Z,53.25
2022-09-09T03:43:55.589Z,53.26
2022-09-09T03:46:44.214Z,53.43
2022-09-09T03:49:30.230Z,53.65
2022-09-09T03:52:20.423Z,53.24
2022-09-09T03:55:10.416Z,53.84
2022-09-09T03:57:56.661Z,53.87
2022-09-09T04:00:44.242Z,53.86
2022-09-09T04:03:30.861Z,53.71
2022-09-09T04:06:18.214Z,53.98
2022-09-09T04:09:06.506Z,53.90
2022-09-09T04:11:54.189Z,53.73
2022-09-09T04:14:40.378Z,53.84
2022-09-09T04:17:26.944Z,53.69
2022-09-09T04:20:13.208Z,53.92
2022-09-09T04:22:59.315Z,53.75
2022-09-09T04:25:50.132Z,54.01
2022-09-09T04:28:37.290Z,54.12
2022-09-09T04:31:26.964Z,54.11
2022-09-09T04:34:15.789Z,54.15
2022-09-09T04:37:02.233Z,55.29
2022-09-09T04:39:48.721Z,54.25
2022-09-09T04:42:37.184Z,54.29
2022-09-09T04:45:23.575Z,54.38
2022-09-09T04:48:10.708Z,54.46
2022-09-09T04:51:05.801Z,54.80
2022-09-09T04:53:55.094Z,54.75
2022-09-09T04:56:43.495Z,54.73
2022-09-09T04:59:31.284Z,54.88
2022-09-09T05:02:19.920Z,54.78
2022-09-09T05:05:07.515Z,54.78
2022-09-09T05:07:53.628Z,54.69
2022-09-09T05:10:40.214Z,54.81
2022-09-09T05:13:30.049Z,54.90
2022-09-09T05:16:16.368Z,55.18
2022-09-09T05:19:04.269Z,55.08
2022-09-09T05:22:02.106Z,54.92
2022-09-09T05:24:56.032Z,55.19
2022-09-09T05:27:41.919Z,55.11
2022-09-09T05:30:27.900Z,55.10
2022-09-09T05:33:14.253Z,55.06
2022-09-09T05:36:02.699Z,55.20
2022-09-09T05:38:50.279Z,55.26
2022-09-09T05:41:36.994Z,55.31
2022-09-09T05:44:26.054Z,55.45
2022-09-09T05:47:13.273Z,55.42
2022-09-09T05:49:59.084Z,55.43
2022-09-09T05:52:45.537Z,55.39
2022-09-09T05:55:32.266Z,55.56
2022-09-09T05:58:19.128Z,55.59
2022-09-09T06:01:09.709Z,55.63
2022-09-09T06:03:56.713Z,55.64
2022-09-09T06:06:44.148Z,55.69
2022-09-09T06:09:33.689Z,55.65
2022-09-09T06:12:19.452Z,55.73
2022-09-09T06:15:06.263Z,55.96
2022-09-09T06:17:56.622Z,55.82
2022-09-09T06:20:42.432Z,56.20
2022-09-09T06:23:29.521Z,56.15
2022-09-09T06:26:20.954Z,56.23
2022-09-09T06:29:08.941Z,56.38
2022-09-09T06:31:56.869Z,56.21
2022-09-09T06:34:46.441Z,57.35
2022-09-09T06:37:32.365Z,59.48
2022-09-09T06:40:18.791Z,64.20
2022-09-09T06:43:05.138Z,60.38
2022-09-09T06:46:13.921Z,60.85
2022-09-09T06:49:00.939Z,61.37
2022-09-09T06:51:47.447Z,59.10
2022-09-09T06:54:34.669Z,58.44
2022-09-09T06:57:36.350Z,58.86
2022-09-09T07:00:25.104Z,57.91
2022-09-09T07:03:11.800Z,58.26
2022-09-09T07:05:58.745Z,57.99
2022-09-09T07:08:58.811Z,58.31
2022-09-09T07:11:49.165Z,57.85
2022-09-09T07:14:38.569Z,58.41
2022-09-09T07:17:29.324Z,58.19
2022-09-09T07:20:16.880Z,57.99
2022-09-09T07:23:03.922Z,57.77
2022-09-09T07:25:51.479Z,58.10
2022-09-09T07:28:38.749Z,58.09
2022-09-09T07:31:37.615Z,58.24
2022-09-09T07:34:27.245Z,58.02
2022-09-09T07:37:14.503Z,58.01
2022-09-09T07:40:04.235Z,58.16
2022-09-09T07:42:50.386Z,58.67
2022-09-09T07:45:37.041Z,58.76
2022-09-09T07:48:22.939Z,58.44
2022-09-09T07:51:11.441Z,58.53
2022-09-09T07:54:00.748Z,58.47
2022-09-09T07:56:47.773Z,58.60
2022-09-09T07:59:34.626Z,59.01
2022-09-09T08:02:20.742Z,58.87
2022-09-09T08:05:07.149Z,59.00
2022-09-09T08:07:53.685Z,58.66
2022-09-09T08:10:39.730Z,58.58
2022-09-09T08:13:25.562Z,58.79
2022-09-09T08:16:16.451Z,58.73
2022-09-09T08:19:03.869Z,58.60
2022-09-09T08:21:50.173Z,58.58
2022-09-09T08:24:37.007Z,58.54
2022-09-09T08:27:23.778Z,58.77
2022-09-09T08:30:13.829Z,58.79
2022-09-09T08:33:01.045Z,58.46
2022-09-09T08:35:52.039Z,58.96
2022-09-09T08:38:38.795Z,59.09
2022-09-09T08:42:02.008Z,59.44
2022-09-09T08:44:57.215Z,59.43
2022-09-09T08:48:04.553Z,59.64
2022-09-09T08:50:53.145Z,59.67
2022-09-09T08:53:55.363Z,59.96
2022-09-09T08:56:45.596Z,60.25
2022-09-09T08:59:32.680Z,60.65
2022-09-09T09:02:24.839Z,63.05
2022-09-09T09:05:31.114Z,61.26
2022-09-09T09:08:30.058Z,60.78
2022-09-09T09:11:15.961Z,60.52
2022-09-09T09:14:24.528Z,64.15
2022-09-09T09:17:21.773Z,61.92
2022-09-09T09:20:13.762Z,61.35
2022-09-09T09:23:01.931Z,61.55
2022-09-09T09:25:48.218Z,61.41
2022-09-09T09:28:35.159Z,63.51
2022-09-09T09:31:28.660Z,63.96
2022-09-09T09:34:14.937Z,64.37
2022-09-09T09:37:02.789Z,64.29
2022-09-09T09:40:07.002Z,65.69
2022-09-09T09:42:55.370Z,63.41
2022-09-09T09:45:55.252Z,63.57
2022-09-09T09:49:06.734Z,63.88
2022-09-09T09:51:53.823Z,63.06
2022-09-09T09:54:43.114Z,63.30
2022-09-09T09:57:32.618Z,62.47
2022-09-09T10:00:23.946Z,62.51
2022-09-09T10:03:24.044Z,62.83
2022-09-09T10:06:11.049Z,62.42
2022-09-09T10:08:56.947Z,62.35
2022-09-09T10:11:48.014Z,62.05
2022-09-09T10:15:00.048Z,62.50
2022-09-09T10:18:02.974Z,62.92
2022-09-09T10:21:11.188Z,62.50
2022-09-09T10:24:34.465Z,67.29
2022-09-09T10:27:42.053Z,63.69
2022-09-09T10:30:42.595Z,63.27
2022-09-09T10:33:45.745Z,62.90
2022-09-09T10:36:31.998Z,62.92
2022-09-09T10:39:20.808Z,63.84
2022-09-09T10:42:13.968Z,63.37
2022-09-09T10:45:26.343Z,62.92
2022-09-09T10:48:27.425Z,64.47
2022-09-09T10:51:22.570Z,62.95
2022-09-09T10:54:18.731Z,64.13
2022-09-09T10:57:22.174Z,63.10
2022-09-09T11:00:38.554Z,62.71
2022-09-09T11:03:30.624Z,62.86
2022-09-09T11:06:20.821Z,62.89
2022-09-09T11:09:07.910Z,63.11
2022-09-09T11:11:55.697Z,62.59
2022-09-09T11:14:49.653Z,63.92
2022-09-09T11:17:48.130Z,64.17
2022-09-09T11:20:36.144Z,63.23
2022-09-09T11:23:42.319Z,65.73
2022-09-09T11:26:41.038Z,66.24
2022-09-09T11:29:51.838Z,63.26
2022-09-09T11:33:11.140Z,63.43
2022-09-09T11:36:05.877Z,64.40
2022-09-09T11:39:01.667Z,67.78
2022-09-09T11:41:47.524Z,63.88
2022-09-09T11:44:33.453Z,64.13
2022-09-09T11:47:31.353Z,64.47
2022-09-09T11:50:17.390Z,63.80
2022-09-09T11:53:16.091Z,63.63
2022-09-09T11:56:16.976Z,63.15
2022-09-09T11:59:18.118Z,65.41
2022-09-09T12:02:13.937Z,63.75
2022-09-09T12:05:15.056Z,63.53
2022-09-09T12:08:02.226Z,63.48
2022-09-09T12:11:04.360Z,63.67
2022-09-09T12:13:57.511Z,63.15
2022-09-09T12:16:43.907Z,62.74
2022-09-09T12:19:29.961Z,62.94
2022-09-09T12:22:29.323Z,62.97
2022-09-09T12:25:28.001Z,62.78
2022-09-09T12:28:20.418Z,62.94
2022-09-09T12:31:11.714Z,62.64
2022-09-09T12:34:26.372Z,62.85
2022-09-09T12:37:30.937Z,62.79
2022-09-09T12:40:30.018Z,62.86
2022-09-09T12:43:22.261Z,62.91
2022-09-09T12:46:10.283Z,62.78
2022-09-09T12:48:56.710Z,62.67
2022-09-09T12:51:44.725Z,62.72
2022-09-09T12:57:16.900Z,62.22
2022-09-09T13:00:16.771Z,62.46
2022-09-09T13:03:14.617Z,62.66
2022-09-09T13:06:13.489Z,62.83
2022-09-09T13:09:02.249Z,62.38
2022-09-09T13:11:52.046Z,62.46
2022-09-09T13:14:40.756Z,62.47
2022-09-09T13:17:30.088Z,62.45
2022-09-09T13:20:20.628Z,62.40
2022-09-09T13:23:06.920Z,62.11
2022-09-09T13:26:01.696Z,62.18
2022-09-09T13:28:47.770Z,62.00
2022-09-09T13:31:36.705Z,62.19
2022-09-09T13:34:34.121Z,62.29
2022-09-09T13:37:35.442Z,62.67
2022-09-09T13:40:23.010Z,62.16
2022-09-09T13:43:16.901Z,61.98
2022-09-09T13:46:07.312Z,62.24
2022-09-09T13:49:01.453Z,62.23
2022-09-09T13:52:05.963Z,62.42
2022-09-09T13:54:52.834Z,62.18
2022-09-09T13:57:38.681Z,62.17
2022-09-09T14:00:25.715Z,62.22
2022-09-09T14:03:12.098Z,61.93
2022-09-09T14:05:58.873Z,62.12
2022-09-09T14:08:46.622Z,62.33
2022-09-09T14:11:33.008Z,62.37
2022-09-09T14:14:19.364Z,62.33
2022-09-09T14:17:07.993Z,62.36
2022-09-09T14:19:54.351Z,62.33
2022-09-09T14:22:43.025Z,62.26
2022-09-09T14:25:29.755Z,62.20
2022-09-09T14:28:16.295Z,62.41
2022-09-09T14:31:03.629Z,62.12
2022-09-09T14:33:49.709Z,62.36
2022-09-09T14:36:35.531Z,62.53
2022-09-09T14:39:21.698Z,62.55
2022-09-09T14:42:08.095Z,62.54
2022-09-09T14:44:54.540Z,62.69
2022-09-09T14:47:40.599Z,62.53
2022-09-09T14:50:26.720Z,62.55
2022-09-09T14:53:13.749Z,62.48
2022-09-09T14:56:11.456Z,62.80
2022-09-09T14:58:59.336Z,62.61
2022-09-09T15:01:45.625Z,62.67
2022-09-09T15:04:31.427Z,62.53
2022-09-09T15:07:20.290Z,62.42
2022-09-09T15:10:07.556Z,62.45
2022-09-09T15:12:54.167Z,62.73
2022-09-09T15:15:40.172Z,62.55
2022-09-09T15:18:26.645Z,62.68
2022-09-09T15:21:14.550Z,62.46
2022-09-09T15:24:00.644Z,62.41
2022-09-09T15:26:46.688Z,62.98
2022-09-09T15:29:32.588Z,62.91
2022-09-09T15:32:19.168Z,62.92
2022-09-09T15:35:05.545Z,63.07
2022-09-09T15:37:51.374Z,63.62
2022-09-09T15:40:37.353Z,62.97
2022-09-09T15:43:23.286Z,63.15
2022-09-09T15:46:27.076Z,63.85
2022-09-09T15:49:26.612Z,63.98
2022-09-09T15:52:13.038Z,63.81
2022-09-09T15:55:00.628Z,63.72
2022-09-09T15:57:48.405Z,63.97
2022-09-09T16:00:35.366Z,63.65
2022-09-09T16:03:21.759Z,63.38
2022-09-09T16:06:08.016Z,63.56
2022-09-09T16:08:54.590Z,63.40
2022-09-09T16:11:40.721Z,63.31
2022-09-09T16:14:26.966Z,63.20
2022-09-09T16:17:12.818Z,63.08
2022-09-09T16:19:58.731Z,63.20
2022-09-09T16:22:44.801Z,63.16
2022-09-09T16:25:31.169Z,63.06
2022-09-09T16:28:17.108Z,63.33
2022-09-09T16:31:07.446Z,63.16
2022-09-09T16:33:53.556Z,63.24
2022-09-09T16:36:41.389Z,63.27
2022-09-09T16:39:27.579Z,63.36
2022-09-09T16:42:13.494Z,63.29
2022-09-09T16:44:59.257Z,63.28
2022-09-09T16:47:45.561Z,63.37
2022-09-09T16:50:32.062Z,63.40
2022-09-09T16:53:17.926Z,63.46
2022-09-09T16:56:15.130Z,63.60
2022-09-09T16:59:03.156Z,63.55
2022-09-09T17:01:50.953Z,63.53
2022-09-09T17:04:37.091Z,63.63
2022-09-09T17:07:23.727Z,63.58
2022-09-09T17:10:09.695Z,63.71
2022-09-09T17:12:56.329Z,63.63
2022-09-09T17:15:43.854Z,63.47
2022-09-09T17:18:29.881Z,63.57
2022-09-09T17:21:19.065Z,63.37
2022-09-09T17:24:05.554Z,63.61
2022-09-09T17:26:51.630Z,63.62
2022-09-09T17:29:37.773Z,63.64
2022-09-09T17:32:23.587Z,63.53
2022-09-09T17:35:10.117Z,63.52
2022-09-09T17:37:56.022Z,63.61
2022-09-09T17:40:43.173Z,63.61
2022-09-09T17:43:29.478Z,63.62
2022-09-09T17:46:20.839Z,63.58
2022-09-09T17:49:13.453Z,63.82
2022-09-09T17:51:59.498Z,63.71
2022-09-09T17:54:45.753Z,63.49
2022-09-09T17:57:32.159Z,63.70
2022-09-09T18:00:18.595Z,63.71
2022-09-09T18:03:04.967Z,63.83
2022-09-09T18:05:50.942Z,63.86
2022-09-09T18:08:37.321Z,63.88
2022-09-09T18:11:25.974Z,63.63
2022-09-09T18:14:18.449Z,63.83
2022-09-09T18:17:04.775Z,63.74
2022-09-09T18:19:51.104Z,63.95
2022-09-09T18:22:37.404Z,63.97
2022-09-09T18:25:23.273Z,63.88
2022-09-09T18:28:09.391Z,63.82
2022-09-09T18:30:55.605Z,63.99
2022-09-09T18:33:44.380Z,64.15
2022-09-09T18:36:33.677Z,63.90
2022-09-09T18:39:21.165Z,63.72
2022-09-09T18:42:07.509Z,63.93
2022-09-09T18:44:53.588Z,63.81
2022-09-09T18:47:39.938Z,63.91
2022-09-09T18:50:25.677Z,63.65
2022-09-09T18:53:11.590Z,63.89
2022-09-09T18:56:02.589Z,63.79
2022-09-09T18:58:55.964Z,63.72
2022-09-09T19:01:42.923Z,63.64
2022-09-09T19:04:29.336Z,63.68
2022-09-09T19:07:15.144Z,63.74
2022-09-09T19:10:02.814Z,63.62
2022-09-09T19:12:49.050Z,63.77
2022-09-09T19:15:39.794Z,63.82
2022-09-09T19:18:27.494Z,63.91
2022-09-09T19:21:18.624Z,64.02
2022-09-09T19:24:15.977Z,64.11
2022-09-09T19:27:03.789Z,63.94
2022-09-09T19:29:52.079Z,63.99
2022-09-09T19:32:53.290Z,63.99
2022-09-09T19:35:40.006Z,63.92
2022-09-09T19:38:26.739Z,64.01
2022-09-09T19:41:21.449Z,63.90
2022-09-09T19:44:12.068Z,63.99
2022-09-09T19:46:59.633Z,63.97
2022-09-09T19:49:47.392Z,63.99
2022-09-09T19:52:33.705Z,64.02
2022-09-09T19:55:20.089Z,64.10
2022-09-09T19:58:06.284Z,64.12
2022-09-09T20:00:52.239Z,64.39
2022-09-09T20:03:40.180Z,64.13
2022-09-09T20:06:28.920Z,64.16
2022-09-09T20:09:16.962Z,64.01
2022-09-09T20:12:03.073Z,64.26
2022-09-09T20:14:48.986Z,64.17
2022-09-09T20:17:34.850Z,64.40
2022-09-09T20:20:21.274Z,64.15
2022-09-09T20:23:08.202Z,64.33
2022-09-09T20:25:54.304Z,64.21
2022-09-09T20:28:42.322Z,64.40
2022-09-09T20:31:30.057Z,64.42
2022-09-09T20:34:19.143Z,64.57
2022-09-09T20:37:06.047Z,64.34
2022-09-09T20:39:52.770Z,64.42
2022-09-09T20:42:39.821Z,64.43
2022-09-09T20:45:25.957Z,64.52
2022-09-09T20:48:11.879Z,64.43
2022-09-09T20:51:02.897Z,64.44
2022-09-09T20:53:49.248Z,64.56
2022-09-09T20:56:40.835Z,64.40
2022-09-09T20:59:28.365Z,64.48
2022-09-09T21:02:14.591Z,64.54
2022-09-09T21:05:01.547Z,64.52
2022-09-09T21:07:47.806Z,64.53
2022-09-09T21:10:33.856Z,64.56
2022-09-09T21:13:21.011Z,64.43
2022-09-09T21:16:09.542Z,64.56
2022-09-09T21:18:55.854Z,64.48
2022-09-09T21:21:42.028Z,64.51
2022-09-09T21:24:28.288Z,64.43
2022-09-09T21:27:15.326Z,64.56
2022-09-09T21:30:03.901Z,64.54
2022-09-09T21:32:50.045Z,64.68
2022-09-09T21:35:39.966Z,64.79
2022-09-09T21:38:26.084Z,64.89
2022-09-09T21:41:16.603Z,64.75
2022-09-09T21:44:02.677Z,64.64
2022-09-09T21:46:49.031Z,64.63
2022-09-09T21:49:34.838Z,64.58
2022-09-09T21:52:20.700Z,64.63
2022-09-09T21:55:07.058Z,64.87
2022-09-09T21:57:52.912Z,64.59
2022-09-09T22:00:42.945Z,64.82
2022-09-09T22:03:28.826Z,64.81
2022-09-09T22:06:16.880Z,64.78
2022-09-09T22:09:03.729Z,64.75
2022-09-09T22:11:49.582Z,65.12
2022-09-09T22:14:36.768Z,64.75
2022-09-09T22:17:24.677Z,64.69
2022-09-09T22:20:12.288Z,64.74
2022-09-09T22:22:58.202Z,64.92
2022-09-09T22:25:44.769Z,64.86
2022-09-09T22:28:31.210Z,64.79
2022-09-09T22:31:17.503Z,64.71
2022-09-09T22:34:03.784Z,65.09
2022-09-09T22:36:51.187Z,65.11
2022-09-09T22:39:37.477Z,65.08
2022-09-09T22:42:23.374Z,65.01
2022-09-09T22:45:10.285Z,65.00
2022-09-09T22:47:57.105Z,64.97
2022-09-09T22:50:43.076Z,65.16
2022-09-09T22:53:30.335Z,65.27
2022-09-09T22:56:19.138Z,65.24
2022-09-09T22:59:04.915Z,65.30
2022-09-09T23:01:51.442Z,65.13
2022-09-09T23:04:39.217Z,64.82
2022-09-09T23:07:25.166Z,64.95
2022-09-09T23:10:11.300Z,65.07
2022-09-09T23:12:58.776Z,65.09
2022-09-09T23:15:47.042Z,64.88
2022-09-09T23:18:33.869Z,65.23
2022-09-09T23:21:20.289Z,65.10
2022-09-09T23:24:08.018Z,65.26
2022-09-09T23:26:54.157Z,65.20
2022-09-09T23:29:40.110Z,65.19
2022-09-09T23:32:26.431Z,65.21
2022-09-09T23:35:12.414Z,65.17
2022-09-09T23:38:00.016Z,65.06
2022-09-09T23:40:46.978Z,65.02
2022-09-09T23:43:39.608Z,65.32
2022-09-09T23:46:28.479Z,65.29
2022-09-09T23:49:14.535Z,65.10
2022-09-09T23:52:05.447Z,65.38
2022-09-09T23:54:51.450Z,65.41
2022-09-09T23:57:37.266Z,65.40
